sensor_id;sensor_type;location;lat;lon;timestamp;P1;durP1;ratioP1;P2;durP2;ratioP2
55148;SDS011;49539;48.160;11.530;2023-06-22T00:01:53;7.37;;;3.13;;
55148;SDS011;49539;48.160;11.530;2023-06-22T00:04:19;5.95;;;3.40;;
55148;SDS011;49539;48.160;11.530;2023-06-22T00:06:44;9.45;;;3.60;;
55148;SDS011;49539;48.160;11.530;2023-06-22T00:09:09;6.03;;;3.85;;
55148;SDS011;49539;48.160;11.530;2023-06-22T00:11:36;7.30;;;3.63;;
55148;SDS011;49539;48.160;11.530;2023-06-22T00:14:01;7.65;;;3.47;;
55148;SDS011;49539;48.160;11.530;2023-06-22T00:16:27;9.32;;;3.90;;
55148;SDS011;49539;48.160;11.530;2023-06-22T00:18:52;6.15;;;3.45;;
55148;SDS011;49539;48.160;11.530;2023-06-22T00:21:17;6.97;;;3.72;;
55148;SDS011;49539;48.160;11.530;2023-06-22T00:23:45;9.27;;;4.03;;
55148;SDS011;49539;48.160;11.530;2023-06-22T00:26:11;6.78;;;4.00;;
55148;SDS011;49539;48.160;11.530;2023-06-22T00:28:37;11.40;;;3.55;;
55148;SDS011;49539;48.160;11.530;2023-06-22T00:31:02;7.20;;;3.90;;
55148;SDS011;49539;48.160;11.530;2023-06-22T00:33:27;9.05;;;3.70;;
55148;SDS011;49539;48.160;11.530;2023-06-22T00:35:53;6.95;;;4.32;;
55148;SDS011;49539;48.160;11.530;2023-06-22T00:38:19;9.23;;;3.10;;
55148;SDS011;49539;48.160;11.530;2023-06-22T00:40:44;5.43;;;3.22;;
55148;SDS011;49539;48.160;11.530;2023-06-22T00:43:09;8.35;;;3.95;;
55148;SDS011;49539;48.160;11.530;2023-06-22T00:45:36;8.75;;;3.40;;
55148;SDS011;49539;48.160;11.530;2023-06-22T00:48:01;12.55;;;4.10;;
55148;SDS011;49539;48.160;11.530;2023-06-22T00:50:31;8.50;;;4.28;;
55148;SDS011;49539;48.160;11.530;2023-06-22T00:52:59;7.82;;;3.92;;
55148;SDS011;49539;48.160;11.530;2023-06-22T00:55:25;8.40;;;4.53;;
55148;SDS011;49539;48.160;11.530;2023-06-22T00:57:51;7.65;;;3.97;;
55148;SDS011;49539;48.160;11.530;2023-06-22T01:00:20;7.25;;;3.75;;
55148;SDS011;49539;48.160;11.530;2023-06-22T01:02:46;8.55;;;3.78;;
55148;SDS011;49539;48.160;11.530;2023-06-22T01:05:15;7.32;;;4.53;;
55148;SDS011;49539;48.160;11.530;2023-06-22T01:10:35;7.05;;;3.25;;
55148;SDS011;49539;48.160;11.530;2023-06-22T01:13:07;9.20;;;3.88;;
55148;SDS011;49539;48.160;11.530;2023-06-22T01:15:39;6.97;;;3.55;;
55148;SDS011;49539;48.160;11.530;2023-06-22T01:18:06;9.27;;;3.45;;
55148;SDS011;49539;48.160;11.530;2023-06-22T01:20:34;6.85;;;3.90;;
55148;SDS011;49539;48.160;11.530;2023-06-22T01:23:26;7.05;;;3.38;;
55148;SDS011;49539;48.160;11.530;2023-06-22T01:26:03;7.55;;;3.20;;
55148;SDS011;49539;48.160;11.530;2023-06-22T01:28:49;5.78;;;3.10;;
55148;SDS011;49539;48.160;11.530;2023-06-22T01:31:19;8.38;;;3.53;;
55148;SDS011;49539;48.160;11.530;2023-06-22T01:33:48;7.07;;;3.45;;
55148;SDS011;49539;48.160;11.530;2023-06-22T01:36:14;6.70;;;3.45;;
55148;SDS011;49539;48.160;11.530;2023-06-22T01:38:41;7.47;;;3.45;;
55148;SDS011;49539;48.160;11.530;2023-06-22T01:41:07;6.20;;;2.97;;
55148;SDS011;49539;48.160;11.530;2023-06-22T01:43:32;5.95;;;3.83;;
55148;SDS011;49539;48.160;11.530;2023-06-22T01:45:59;6.93;;;3.40;;
55148;SDS011;49539;48.160;11.530;2023-06-22T01:48:24;7.20;;;3.38;;
55148;SDS011;49539;48.160;11.530;2023-06-22T01:50:51;6.75;;;2.95;;
55148;SDS011;49539;48.160;11.530;2023-06-22T01:53:16;7.45;;;3.17;;
55148;SDS011;49539;48.160;11.530;2023-06-22T01:55:43;6.93;;;3.70;;
55148;SDS011;49539;48.160;11.530;2023-06-22T01:58:08;7.00;;;2.80;;
55148;SDS011;49539;48.160;11.530;2023-06-22T02:00:38;7.55;;;3.60;;
55148;SDS011;49539;48.160;11.530;2023-06-22T02:03:13;8.82;;;3.00;;
55148;SDS011;49539;48.160;11.530;2023-06-22T02:05:46;6.40;;;3.25;;
55148;SDS011;49539;48.160;11.530;2023-06-22T02:08:13;8.25;;;3.80;;
55148;SDS011;49539;48.160;11.530;2023-06-22T02:10:43;6.10;;;3.58;;
55148;SDS011;49539;48.160;11.530;2023-06-22T02:13:09;6.18;;;4.07;;
55148;SDS011;49539;48.160;11.530;2023-06-22T02:15:34;8.32;;;3.70;;
55148;SDS011;49539;48.160;11.530;2023-06-22T02:18:00;6.55;;;3.20;;
55148;SDS011;49539;48.160;11.530;2023-06-22T02:20:25;7.65;;;3.78;;
55148;SDS011;49539;48.160;11.530;2023-06-22T02:22:51;9.63;;;4.07;;
55148;SDS011;49539;48.160;11.530;2023-06-22T02:25:16;7.25;;;4.05;;
55148;SDS011;49539;48.160;11.530;2023-06-22T02:27:42;8.80;;;4.07;;
55148;SDS011;49539;48.160;11.530;2023-06-22T02:30:07;8.32;;;3.78;;
55148;SDS011;49539;48.160;11.530;2023-06-22T02:32:34;6.78;;;3.33;;
55148;SDS011;49539;48.160;11.530;2023-06-22T02:34:59;7.90;;;3.30;;
55148;SDS011;49539;48.160;11.530;2023-06-22T02:37:25;7.35;;;3.42;;
55148;SDS011;49539;48.160;11.530;2023-06-22T02:39:50;7.80;;;3.40;;
55148;SDS011;49539;48.160;11.530;2023-06-22T02:42:15;7.40;;;3.42;;
55148;SDS011;49539;48.160;11.530;2023-06-22T02:44:45;11.93;;;3.88;;
55148;SDS011;49539;48.160;11.530;2023-06-22T02:47:10;7.47;;;3.25;;
55148;SDS011;49539;48.160;11.530;2023-06-22T02:49:36;9.10;;;3.45;;
55148;SDS011;49539;48.160;11.530;2023-06-22T02:52:02;7.75;;;3.58;;
55148;SDS011;49539;48.160;11.530;2023-06-22T02:54:27;7.57;;;3.80;;
55148;SDS011;49539;48.160;11.530;2023-06-22T02:56:53;11.30;;;4.47;;
55148;SDS011;49539;48.160;11.530;2023-06-22T02:59:18;6.43;;;3.50;;
55148;SDS011;49539;48.160;11.530;2023-06-22T03:01:48;10.18;;;3.58;;
55148;SDS011;49539;48.160;11.530;2023-06-22T03:04:14;11.30;;;3.85;;
55148;SDS011;49539;48.160;11.530;2023-06-22T03:06:40;10.57;;;4.47;;
55148;SDS011;49539;48.160;11.530;2023-06-22T03:09:06;10.35;;;3.85;;
55148;SDS011;49539;48.160;11.530;2023-06-22T03:11:31;6.78;;;3.80;;
55148;SDS011;49539;48.160;11.530;2023-06-22T03:13:57;6.82;;;3.72;;
55148;SDS011;49539;48.160;11.530;2023-06-22T03:16:22;8.77;;;3.47;;
55148;SDS011;49539;48.160;11.530;2023-06-22T03:18:48;9.75;;;4.25;;
55148;SDS011;49539;48.160;11.530;2023-06-22T03:21:13;9.20;;;4.38;;
55148;SDS011;49539;48.160;11.530;2023-06-22T03:23:40;6.20;;;3.40;;
55148;SDS011;49539;48.160;11.530;2023-06-22T03:26:06;6.90;;;3.38;;
55148;SDS011;49539;48.160;11.530;2023-06-22T03:28:31;8.13;;;3.75;;
55148;SDS011;49539;48.160;11.530;2023-06-22T03:30:57;7.00;;;4.17;;
55148;SDS011;49539;48.160;11.530;2023-06-22T03:33:22;7.28;;;3.90;;
55148;SDS011;49539;48.160;11.530;2023-06-22T03:35:48;10.38;;;3.35;;
55148;SDS011;49539;48.160;11.530;2023-06-22T03:38:14;9.75;;;3.65;;
55148;SDS011;49539;48.160;11.530;2023-06-22T03:40:39;8.82;;;3.67;;
55148;SDS011;49539;48.160;11.530;2023-06-22T03:43:04;7.27;;;3.70;;
55148;SDS011;49539;48.160;11.530;2023-06-22T03:45:30;6.28;;;3.45;;
55148;SDS011;49539;48.160;11.530;2023-06-22T03:47:55;14.37;;;3.70;;
55148;SDS011;49539;48.160;11.530;2023-06-22T03:50:20;8.43;;;3.45;;
55148;SDS011;49539;48.160;11.530;2023-06-22T03:52:46;9.53;;;3.80;;
55148;SDS011;49539;48.160;11.530;2023-06-22T03:55:11;8.65;;;3.90;;
55148;SDS011;49539;48.160;11.530;2023-06-22T03:57:37;10.70;;;3.88;;
55148;SDS011;49539;48.160;11.530;2023-06-22T04:00:02;9.50;;;3.72;;
55148;SDS011;49539;48.160;11.530;2023-06-22T04:02:31;9.65;;;4.45;;
55148;SDS011;49539;48.160;11.530;2023-06-22T04:04:56;7.53;;;4.00;;
55148;SDS011;49539;48.160;11.530;2023-06-22T04:07:21;11.40;;;3.90;;
55148;SDS011;49539;48.160;11.530;2023-06-22T04:09:46;7.93;;;3.83;;
55148;SDS011;49539;48.160;11.530;2023-06-22T04:12:12;12.05;;;4.68;;
55148;SDS011;49539;48.160;11.530;2023-06-22T04:14:37;9.70;;;4.30;;
55148;SDS011;49539;48.160;11.530;2023-06-22T04:17:03;8.40;;;4.77;;
55148;SDS011;49539;48.160;11.530;2023-06-22T04:19:31;9.55;;;3.92;;
55148;SDS011;49539;48.160;11.530;2023-06-22T04:21:56;9.33;;;4.03;;
55148;SDS011;49539;48.160;11.530;2023-06-22T04:24:22;6.20;;;3.83;;
55148;SDS011;49539;48.160;11.530;2023-06-22T04:26:47;8.20;;;4.63;;
55148;SDS011;49539;48.160;11.530;2023-06-22T04:29:13;16.45;;;4.72;;
55148;SDS011;49539;48.160;11.530;2023-06-22T04:31:38;10.32;;;4.45;;
55148;SDS011;49539;48.160;11.530;2023-06-22T04:34:04;9.98;;;4.65;;
55148;SDS011;49539;48.160;11.530;2023-06-22T04:36:35;12.60;;;4.38;;
55148;SDS011;49539;48.160;11.530;2023-06-22T04:39:08;8.20;;;4.20;;
55148;SDS011;49539;48.160;11.530;2023-06-22T04:41:35;7.05;;;4.00;;
55148;SDS011;49539;48.160;11.530;2023-06-22T04:46:35;10.55;;;4.70;;
55148;SDS011;49539;48.160;11.530;2023-06-22T04:49:03;9.50;;;4.50;;
55148;SDS011;49539;48.160;11.530;2023-06-22T04:51:31;10.20;;;4.72;;
55148;SDS011;49539;48.160;11.530;2023-06-22T04:53:56;8.18;;;4.05;;
55148;SDS011;49539;48.160;11.530;2023-06-22T04:56:26;8.43;;;4.55;;
55148;SDS011;49539;48.160;11.530;2023-06-22T04:58:53;9.52;;;4.53;;
55148;SDS011;49539;48.160;11.530;2023-06-22T05:01:21;11.18;;;5.05;;
55148;SDS011;49539;48.160;11.530;2023-06-22T05:03:47;8.20;;;4.75;;
55148;SDS011;49539;48.160;11.530;2023-06-22T05:06:13;10.63;;;4.20;;
55148;SDS011;49539;48.160;11.530;2023-06-22T05:08:39;9.55;;;4.35;;
55148;SDS011;49539;48.160;11.530;2023-06-22T05:11:05;10.38;;;4.43;;
55148;SDS011;49539;48.160;11.530;2023-06-22T05:13:30;10.77;;;4.57;;
55148;SDS011;49539;48.160;11.530;2023-06-22T05:15:55;10.20;;;4.43;;
55148;SDS011;49539;48.160;11.530;2023-06-22T05:18:26;10.90;;;4.03;;
55148;SDS011;49539;48.160;11.530;2023-06-22T05:20:52;10.65;;;4.65;;
55148;SDS011;49539;48.160;11.530;2023-06-22T05:23:17;8.60;;;4.70;;
55148;SDS011;49539;48.160;11.530;2023-06-22T05:25:43;8.70;;;4.78;;
55148;SDS011;49539;48.160;11.530;2023-06-22T05:28:08;11.60;;;5.23;;
55148;SDS011;49539;48.160;11.530;2023-06-22T05:30:36;13.77;;;4.82;;
55148;SDS011;49539;48.160;11.530;2023-06-22T05:33:01;9.20;;;5.13;;
55148;SDS011;49539;48.160;11.530;2023-06-22T05:35:26;13.73;;;4.95;;
55148;SDS011;49539;48.160;11.530;2023-06-22T05:37:52;11.73;;;5.20;;
55148;SDS011;49539;48.160;11.530;2023-06-22T05:40:17;10.40;;;5.43;;
55148;SDS011;49539;48.160;11.530;2023-06-22T05:42:43;9.20;;;5.30;;
55148;SDS011;49539;48.160;11.530;2023-06-22T05:45:08;12.50;;;5.30;;
55148;SDS011;49539;48.160;11.530;2023-06-22T05:47:34;12.80;;;5.90;;
55148;SDS011;49539;48.160;11.530;2023-06-22T05:50:00;9.32;;;4.95;;
55148;SDS011;49539;48.160;11.530;2023-06-22T05:52:26;8.77;;;5.17;;
55148;SDS011;49539;48.160;11.530;2023-06-22T05:54:52;10.88;;;5.25;;
55148;SDS011;49539;48.160;11.530;2023-06-22T05:57:17;10.40;;;4.95;;
55148;SDS011;49539;48.160;11.530;2023-06-22T05:59:42;13.82;;;6.57;;
55148;SDS011;49539;48.160;11.530;2023-06-22T06:02:08;11.87;;;5.70;;
55148;SDS011;49539;48.160;11.530;2023-06-22T06:04:33;11.23;;;5.78;;
55148;SDS011;49539;48.160;11.530;2023-06-22T06:06:58;11.05;;;6.72;;
55148;SDS011;49539;48.160;11.530;2023-06-22T06:09:27;12.00;;;6.33;;
55148;SDS011;49539;48.160;11.530;2023-06-22T06:11:54;8.05;;;4.40;;
55148;SDS011;49539;48.160;11.530;2023-06-22T06:14:19;12.73;;;6.20;;
55148;SDS011;49539;48.160;11.530;2023-06-22T06:16:45;11.05;;;5.82;;
55148;SDS011;49539;48.160;11.530;2023-06-22T06:19:10;11.68;;;6.55;;
55148;SDS011;49539;48.160;11.530;2023-06-22T06:21:36;10.02;;;5.07;;
55148;SDS011;49539;48.160;11.530;2023-06-22T06:24:01;10.25;;;5.35;;
55148;SDS011;49539;48.160;11.530;2023-06-22T06:26:26;10.32;;;5.05;;
55148;SDS011;49539;48.160;11.530;2023-06-22T06:28:58;9.88;;;5.88;;
55148;SDS011;49539;48.160;11.530;2023-06-22T06:31:23;9.68;;;5.60;;
55148;SDS011;49539;48.160;11.530;2023-06-22T06:33:49;9.38;;;6.05;;
55148;SDS011;49539;48.160;11.530;2023-06-22T06:36:14;10.38;;;5.55;;
55148;SDS011;49539;48.160;11.530;2023-06-22T06:38:40;9.73;;;5.03;;
55148;SDS011;49539;48.160;11.530;2023-06-22T06:41:05;9.93;;;5.88;;
55148;SDS011;49539;48.160;11.530;2023-06-22T06:43:31;11.77;;;5.37;;
55148;SDS011;49539;48.160;11.530;2023-06-22T06:45:56;9.77;;;5.68;;
55148;SDS011;49539;48.160;11.530;2023-06-22T06:48:21;12.95;;;5.95;;
55148;SDS011;49539;48.160;11.530;2023-06-22T06:50:46;16.10;;;5.50;;
55148;SDS011;49539;48.160;11.530;2023-06-22T06:53:12;11.75;;;6.32;;
55148;SDS011;49539;48.160;11.530;2023-06-22T06:55:38;10.90;;;6.10;;
55148;SDS011;49539;48.160;11.530;2023-06-22T06:58:05;9.43;;;5.65;;
55148;SDS011;49539;48.160;11.530;2023-06-22T07:00:32;12.25;;;6.43;;
55148;SDS011;49539;48.160;11.530;2023-06-22T07:02:58;15.25;;;6.82;;
55148;SDS011;49539;48.160;11.530;2023-06-22T07:05:24;15.23;;;6.32;;
55148;SDS011;49539;48.160;11.530;2023-06-22T07:07:49;10.23;;;6.30;;
55148;SDS011;49539;48.160;11.530;2023-06-22T07:10:15;19.00;;;7.10;;
55148;SDS011;49539;48.160;11.530;2023-06-22T07:12:40;10.85;;;6.13;;
55148;SDS011;49539;48.160;11.530;2023-06-22T07:15:06;13.63;;;6.30;;
55148;SDS011;49539;48.160;11.530;2023-06-22T07:17:36;11.15;;;6.55;;
55148;SDS011;49539;48.160;11.530;2023-06-22T07:20:02;14.02;;;7.22;;
55148;SDS011;49539;48.160;11.530;2023-06-22T07:22:32;17.13;;;7.22;;
55148;SDS011;49539;48.160;11.530;2023-06-22T07:24:58;10.40;;;6.57;;
55148;SDS011;49539;48.160;11.530;2023-06-22T07:27:23;10.20;;;5.72;;
55148;SDS011;49539;48.160;11.530;2023-06-22T07:29:49;11.40;;;6.78;;
55148;SDS011;49539;48.160;11.530;2023-06-22T07:32:14;13.73;;;7.03;;
55148;SDS011;49539;48.160;11.530;2023-06-22T07:34:43;8.45;;;6.25;;
55148;SDS011;49539;48.160;11.530;2023-06-22T07:37:08;10.52;;;6.13;;
55148;SDS011;49539;48.160;11.530;2023-06-22T07:39:34;13.43;;;6.43;;
55148;SDS011;49539;48.160;11.530;2023-06-22T07:42:00;11.30;;;6.57;;
55148;SDS011;49539;48.160;11.530;2023-06-22T07:44:26;12.17;;;6.53;;
55148;SDS011;49539;48.160;11.530;2023-06-22T07:46:52;12.35;;;6.45;;
55148;SDS011;49539;48.160;11.530;2023-06-22T07:49:18;16.92;;;8.18;;
55148;SDS011;49539;48.160;11.530;2023-06-22T07:51:43;9.93;;;7.07;;
55148;SDS011;49539;48.160;11.530;2023-06-22T07:54:09;13.55;;;6.38;;
55148;SDS011;49539;48.160;11.530;2023-06-22T07:56:35;11.50;;;7.03;;
55148;SDS011;49539;48.160;11.530;2023-06-22T07:59:01;13.50;;;6.63;;
55148;SDS011;49539;48.160;11.530;2023-06-22T08:01:29;22.67;;;7.32;;
55148;SDS011;49539;48.160;11.530;2023-06-22T08:03:55;14.27;;;7.18;;
55148;SDS011;49539;48.160;11.530;2023-06-22T08:06:20;16.63;;;7.33;;
55148;SDS011;49539;48.160;11.530;2023-06-22T08:08:45;12.45;;;6.57;;
55148;SDS011;49539;48.160;11.530;2023-06-22T08:11:13;13.68;;;6.70;;
55148;SDS011;49539;48.160;11.530;2023-06-22T08:13:38;15.68;;;7.15;;
55148;SDS011;49539;48.160;11.530;2023-06-22T08:16:03;15.27;;;7.63;;
55148;SDS011;49539;48.160;11.530;2023-06-22T08:18:29;10.95;;;6.40;;
55148;SDS011;49539;48.160;11.530;2023-06-22T08:20:55;15.45;;;7.30;;
55148;SDS011;49539;48.160;11.530;2023-06-22T08:23:20;9.93;;;6.30;;
55148;SDS011;49539;48.160;11.530;2023-06-22T08:25:45;18.43;;;6.93;;
55148;SDS011;49539;48.160;11.530;2023-06-22T08:28:11;13.30;;;7.13;;
55148;SDS011;49539;48.160;11.530;2023-06-22T08:30:36;14.05;;;6.75;;
55148;SDS011;49539;48.160;11.530;2023-06-22T08:33:03;14.65;;;7.25;;
55148;SDS011;49539;48.160;11.530;2023-06-22T08:35:29;17.05;;;8.10;;
55148;SDS011;49539;48.160;11.530;2023-06-22T08:37:55;12.80;;;7.93;;
55148;SDS011;49539;48.160;11.530;2023-06-22T08:40:22;14.60;;;8.50;;
55148;SDS011;49539;48.160;11.530;2023-06-22T08:42:47;15.00;;;7.78;;
55148;SDS011;49539;48.160;11.530;2023-06-22T08:45:13;17.70;;;8.18;;
55148;SDS011;49539;48.160;11.530;2023-06-22T08:47:39;16.45;;;7.10;;
55148;SDS011;49539;48.160;11.530;2023-06-22T08:50:05;15.48;;;7.28;;
55148;SDS011;49539;48.160;11.530;2023-06-22T08:52:31;15.73;;;7.90;;
55148;SDS011;49539;48.160;11.530;2023-06-22T08:54:57;11.50;;;7.07;;
55148;SDS011;49539;48.160;11.530;2023-06-22T08:57:23;13.75;;;7.40;;
55148;SDS011;49539;48.160;11.530;2023-06-22T08:59:48;12.18;;;7.20;;
55148;SDS011;49539;48.160;11.530;2023-06-22T09:02:15;11.02;;;7.07;;
55148;SDS011;49539;48.160;11.530;2023-06-22T09:04:42;17.25;;;8.43;;
55148;SDS011;49539;48.160;11.530;2023-06-22T09:07:07;14.18;;;7.75;;
55148;SDS011;49539;48.160;11.530;2023-06-22T09:09:34;14.90;;;7.70;;
55148;SDS011;49539;48.160;11.530;2023-06-22T09:12:00;12.73;;;7.88;;
55148;SDS011;49539;48.160;11.530;2023-06-22T09:14:26;13.55;;;7.03;;
55148;SDS011;49539;48.160;11.530;2023-06-22T09:16:54;11.73;;;7.13;;
55148;SDS011;49539;48.160;11.530;2023-06-22T09:19:19;11.85;;;6.88;;
55148;SDS011;49539;48.160;11.530;2023-06-22T09:21:44;13.45;;;7.63;;
55148;SDS011;49539;48.160;11.530;2023-06-22T09:24:10;11.15;;;7.57;;
55148;SDS011;49539;48.160;11.530;2023-06-22T09:26:36;10.18;;;7.00;;
55148;SDS011;49539;48.160;11.530;2023-06-22T09:29:04;12.85;;;7.07;;
55148;SDS011;49539;48.160;11.530;2023-06-22T09:31:29;17.35;;;7.63;;
55148;SDS011;49539;48.160;11.530;2023-06-22T09:33:55;15.25;;;8.18;;
55148;SDS011;49539;48.160;11.530;2023-06-22T09:36:20;15.20;;;7.85;;
55148;SDS011;49539;48.160;11.530;2023-06-22T09:38:47;15.73;;;7.30;;
55148;SDS011;49539;48.160;11.530;2023-06-22T09:41:12;12.63;;;7.30;;
55148;SDS011;49539;48.160;11.530;2023-06-22T09:43:37;15.40;;;6.97;;
55148;SDS011;49539;48.160;11.530;2023-06-22T09:46:03;14.00;;;7.23;;
55148;SDS011;49539;48.160;11.530;2023-06-22T09:48:29;11.63;;;8.00;;
55148;SDS011;49539;48.160;11.530;2023-06-22T09:50:55;11.40;;;7.03;;
55148;SDS011;49539;48.160;11.530;2023-06-22T09:53:21;16.13;;;6.72;;
55148;SDS011;49539;48.160;11.530;2023-06-22T09:55:46;11.77;;;6.63;;
55148;SDS011;49539;48.160;11.530;2023-06-22T09:58:12;15.55;;;7.63;;
55148;SDS011;49539;48.160;11.530;2023-06-22T10:00:37;14.27;;;7.90;;
55148;SDS011;49539;48.160;11.530;2023-06-22T10:03:02;12.38;;;7.30;;
55148;SDS011;49539;48.160;11.530;2023-06-22T10:05:28;13.02;;;7.43;;
55148;SDS011;49539;48.160;11.530;2023-06-22T10:07:54;10.32;;;6.22;;
55148;SDS011;49539;48.160;11.530;2023-06-22T10:10:19;12.35;;;7.22;;
55148;SDS011;49539;48.160;11.530;2023-06-22T10:12:46;14.50;;;6.90;;
55148;SDS011;49539;48.160;11.530;2023-06-22T10:15:11;11.57;;;7.28;;
55148;SDS011;49539;48.160;11.530;2023-06-22T10:17:37;10.25;;;7.75;;
55148;SDS011;49539;48.160;11.530;2023-06-22T10:20:03;15.70;;;7.68;;
55148;SDS011;49539;48.160;11.530;2023-06-22T10:22:43;12.20;;;7.25;;
55148;SDS011;49539;48.160;11.530;2023-06-22T10:25:10;19.83;;;7.40;;
55148;SDS011;49539;48.160;11.530;2023-06-22T10:27:38;9.82;;;6.78;;
55148;SDS011;49539;48.160;11.530;2023-06-22T10:30:07;16.00;;;7.93;;
55148;SDS011;49539;48.160;11.530;2023-06-22T10:32:33;12.38;;;6.82;;
55148;SDS011;49539;48.160;11.530;2023-06-22T10:34:59;12.02;;;7.43;;
55148;SDS011;49539;48.160;11.530;2023-06-22T10:37:24;15.77;;;7.70;;
55148;SDS011;49539;48.160;11.530;2023-06-22T10:39:50;12.93;;;7.57;;
55148;SDS011;49539;48.160;11.530;2023-06-22T10:42:15;13.90;;;7.60;;
55148;SDS011;49539;48.160;11.530;2023-06-22T10:44:41;15.00;;;7.90;;
55148;SDS011;49539;48.160;11.530;2023-06-22T10:47:09;14.93;;;8.07;;
55148;SDS011;49539;48.160;11.530;2023-06-22T10:49:36;12.20;;;6.88;;
55148;SDS011;49539;48.160;11.530;2023-06-22T10:52:01;11.23;;;6.63;;
55148;SDS011;49539;48.160;11.530;2023-06-22T10:54:26;13.87;;;7.23;;
55148;SDS011;49539;48.160;11.530;2023-06-22T10:56:52;11.93;;;7.37;;
55148;SDS011;49539;48.160;11.530;2023-06-22T10:59:17;11.00;;;7.93;;
55148;SDS011;49539;48.160;11.530;2023-06-22T11:01:42;12.97;;;7.30;;
55148;SDS011;49539;48.160;11.530;2023-06-22T11:04:07;14.10;;;7.00;;
55148;SDS011;49539;48.160;11.530;2023-06-22T11:06:33;13.43;;;8.73;;
55148;SDS011;49539;48.160;11.530;2023-06-22T11:08:58;17.40;;;7.90;;
55148;SDS011;49539;48.160;11.530;2023-06-22T11:11:24;14.40;;;7.63;;
55148;SDS011;49539;48.160;11.530;2023-06-22T11:13:50;13.65;;;7.82;;
55148;SDS011;49539;48.160;11.530;2023-06-22T11:16:15;19.07;;;8.10;;
55148;SDS011;49539;48.160;11.530;2023-06-22T11:18:41;10.45;;;7.13;;
55148;SDS011;49539;48.160;11.530;2023-06-22T11:21:06;12.87;;;7.10;;
55148;SDS011;49539;48.160;11.530;2023-06-22T11:23:31;12.27;;;7.53;;
55148;SDS011;49539;48.160;11.530;2023-06-22T11:25:57;10.50;;;7.03;;
55148;SDS011;49539;48.160;11.530;2023-06-22T11:28:22;10.43;;;7.17;;
55148;SDS011;49539;48.160;11.530;2023-06-22T11:30:47;16.30;;;7.10;;
55148;SDS011;49539;48.160;11.530;2023-06-22T11:33:13;11.87;;;7.17;;
55148;SDS011;49539;48.160;11.530;2023-06-22T11:35:38;15.50;;;7.53;;
55148;SDS011;49539;48.160;11.530;2023-06-22T11:38:03;15.70;;;8.27;;
55148;SDS011;49539;48.160;11.530;2023-06-22T11:40:30;14.32;;;7.18;;
55148;SDS011;49539;48.160;11.530;2023-06-22T11:42:55;9.93;;;7.32;;
55148;SDS011;49539;48.160;11.530;2023-06-22T11:45:20;11.52;;;7.90;;
55148;SDS011;49539;48.160;11.530;2023-06-22T11:47:46;12.63;;;7.57;;
55148;SDS011;49539;48.160;11.530;2023-06-22T11:50:12;13.73;;;8.13;;
55148;SDS011;49539;48.160;11.530;2023-06-22T11:52:37;14.70;;;7.88;;
55148;SDS011;49539;48.160;11.530;2023-06-22T11:55:03;17.63;;;8.20;;
55148;SDS011;49539;48.160;11.530;2023-06-22T11:57:30;19.92;;;8.25;;
55148;SDS011;49539;48.160;11.530;2023-06-22T11:59:55;9.60;;;7.47;;
55148;SDS011;49539;48.160;11.530;2023-06-22T12:02:20;16.70;;;7.83;;
55148;SDS011;49539;48.160;11.530;2023-06-22T12:04:46;17.00;;;7.90;;
55148;SDS011;49539;48.160;11.530;2023-06-22T12:07:12;25.73;;;7.88;;
55148;SDS011;49539;48.160;11.530;2023-06-22T12:09:37;13.47;;;7.77;;
55148;SDS011;49539;48.160;11.530;2023-06-22T12:12:03;11.73;;;7.65;;
55148;SDS011;49539;48.160;11.530;2023-06-22T12:14:30;13.50;;;7.55;;
55148;SDS011;49539;48.160;11.530;2023-06-22T12:16:55;18.73;;;9.00;;
55148;SDS011;49539;48.160;11.530;2023-06-22T12:19:20;15.57;;;8.35;;
55148;SDS011;49539;48.160;11.530;2023-06-22T12:21:46;12.43;;;7.97;;
55148;SDS011;49539;48.160;11.530;2023-06-22T12:24:12;11.05;;;7.70;;
55148;SDS011;49539;48.160;11.530;2023-06-22T12:26:37;18.02;;;7.63;;
55148;SDS011;49539;48.160;11.530;2023-06-22T12:29:03;16.60;;;8.20;;
55148;SDS011;49539;48.160;11.530;2023-06-22T12:31:28;13.43;;;7.77;;
55148;SDS011;49539;48.160;11.530;2023-06-22T12:33:53;16.27;;;8.15;;
55148;SDS011;49539;48.160;11.530;2023-06-22T12:36:18;13.03;;;7.47;;
55148;SDS011;49539;48.160;11.530;2023-06-22T12:38:44;17.27;;;8.27;;
55148;SDS011;49539;48.160;11.530;2023-06-22T12:41:10;20.95;;;9.32;;
55148;SDS011;49539;48.160;11.530;2023-06-22T12:43:37;20.80;;;8.55;;
55148;SDS011;49539;48.160;11.530;2023-06-22T12:46:03;12.10;;;8.00;;
55148;SDS011;49539;48.160;11.530;2023-06-22T12:48:28;16.67;;;7.37;;
55148;SDS011;49539;48.160;11.530;2023-06-22T12:50:53;11.57;;;7.53;;
55148;SDS011;49539;48.160;11.530;2023-06-22T12:53:18;12.43;;;7.50;;
55148;SDS011;49539;48.160;11.530;2023-06-22T12:55:45;13.50;;;7.40;;
55148;SDS011;49539;48.160;11.530;2023-06-22T12:58:10;18.90;;;7.95;;
55148;SDS011;49539;48.160;11.530;2023-06-22T13:00:38;10.73;;;7.22;;
55148;SDS011;49539;48.160;11.530;2023-06-22T13:03:04;13.32;;;7.55;;
55148;SDS011;49539;48.160;11.530;2023-06-22T13:05:29;16.50;;;7.57;;
55148;SDS011;49539;48.160;11.530;2023-06-22T13:07:55;10.00;;;7.05;;
55148;SDS011;49539;48.160;11.530;2023-06-22T13:10:20;13.10;;;7.33;;
55148;SDS011;49539;48.160;11.530;2023-06-22T13:12:46;9.95;;;7.43;;
55148;SDS011;49539;48.160;11.530;2023-06-22T13:15:11;9.48;;;6.93;;
55148;SDS011;49539;48.160;11.530;2023-06-22T13:17:37;13.67;;;7.10;;
55148;SDS011;49539;48.160;11.530;2023-06-22T13:20:02;11.07;;;7.90;;
55148;SDS011;49539;48.160;11.530;2023-06-22T13:22:30;15.23;;;7.63;;
55148;SDS011;49539;48.160;11.530;2023-06-22T13:24:56;16.58;;;7.18;;
55148;SDS011;49539;48.160;11.530;2023-06-22T13:27:21;12.93;;;7.53;;
55148;SDS011;49539;48.160;11.530;2023-06-22T13:29:47;19.73;;;7.45;;
55148;SDS011;49539;48.160;11.530;2023-06-22T13:32:12;14.30;;;11.53;;
55148;SDS011;49539;48.160;11.530;2023-06-22T13:34:37;12.77;;;8.17;;
55148;SDS011;49539;48.160;11.530;2023-06-22T13:37:03;14.63;;;7.50;;
55148;SDS011;49539;48.160;11.530;2023-06-22T13:39:28;16.15;;;7.47;;
55148;SDS011;49539;48.160;11.530;2023-06-22T13:41:53;14.67;;;7.57;;
55148;SDS011;49539;48.160;11.530;2023-06-22T13:44:19;12.40;;;7.50;;
55148;SDS011;49539;48.160;11.530;2023-06-22T13:46:47;16.08;;;7.28;;
55148;SDS011;49539;48.160;11.530;2023-06-22T13:49:13;14.65;;;8.15;;
55148;SDS011;49539;48.160;11.530;2023-06-22T13:51:38;14.57;;;7.77;;
55148;SDS011;49539;48.160;11.530;2023-06-22T13:54:03;12.53;;;7.50;;
55148;SDS011;49539;48.160;11.530;2023-06-22T13:56:28;14.63;;;7.47;;
55148;SDS011;49539;48.160;11.530;2023-06-22T13:58:54;9.17;;;6.30;;
55148;SDS011;49539;48.160;11.530;2023-06-22T14:01:19;13.77;;;6.97;;
55148;SDS011;49539;48.160;11.530;2023-06-22T14:03:44;9.07;;;6.77;;
55148;SDS011;49539;48.160;11.530;2023-06-22T14:06:12;12.10;;;6.82;;
55148;SDS011;49539;48.160;11.530;2023-06-22T14:08:37;14.43;;;6.95;;
55148;SDS011;49539;48.160;11.530;2023-06-22T14:11:02;11.80;;;7.87;;
55148;SDS011;49539;48.160;11.530;2023-06-22T14:13:28;14.02;;;7.28;;
55148;SDS011;49539;48.160;11.530;2023-06-22T14:15:53;11.07;;;6.80;;
55148;SDS011;49539;48.160;11.530;2023-06-22T14:18:20;10.38;;;6.80;;
55148;SDS011;49539;48.160;11.530;2023-06-22T14:20:48;15.32;;;7.60;;
55148;SDS011;49539;48.160;11.530;2023-06-22T14:23:13;12.00;;;7.50;;
55148;SDS011;49539;48.160;11.530;2023-06-22T14:25:39;15.60;;;7.90;;